»·PEaware :: N15JG KVNY-KSNA

N15JG :: KVNY-KSNA

FLIGHT INFORMATION

Flight Status: Arrived
Operator: Privately registered:
United States
More flights under this callsign
Pilot: Anonymous 11047 (11047)
Aircraft: CESSNA 172 SKYHAWK
(C172)
More flights by this aircraft type
Origin: KVNY Van Nuys
United States
Destination: KSNA John Wayne-Orange Co
United States
More flights between these airports :: More routes between these airports
Route: +
File this flight plan on PilotEdge
Remarks: cat 10
Altitude:
(Current/Filed)
0ft
Speed:
(Current/Filed)
0kts
Departed: 18-Jun-17 02:58 PM
Arrived: 18-Jun-17 03:35 PM
Distance/Time
Traveled:
44nm/0:37
Distance/Time
To Go:
Arrived

Flight Plot

Page will automatically refresh every two minutes.


Map Options




Map Legend


Flown Route
Filed Route
Departure Airport
Arrival Airport
Navaid (VOR, NDB)
Fix

Horizontal Profiles

Position Reports

Time Latitude Longitude Heading Altitude Ground
Speed
18-Jun-17 14:33 34.210367 -118.491568 335 778ft 1kts
18-Jun-17 14:33 34.210330 -118.491826 186 778ft 0kts
18-Jun-17 14:34 34.210330 -118.491826 186 778ft 0kts
18-Jun-17 14:36 34.210330 -118.491826 186 778ft 0kts
18-Jun-17 14:36 34.210330 -118.491826 186 778ft 0kts
18-Jun-17 14:38 34.210330 -118.491826 186 778ft 0kts
18-Jun-17 14:38 34.210330 -118.491826 186 778ft 0kts
18-Jun-17 14:39 34.210330 -118.491826 186 778ft 0kts
18-Jun-17 14:40 34.210330 -118.491826 186 778ft 0kts
18-Jun-17 14:41 34.210330 -118.491826 186 778ft 0kts
18-Jun-17 14:42 34.210596 -118.491596 356 778ft 7kts
18-Jun-17 14:43 34.213625 -118.491882 355 785ft 12kts
18-Jun-17 14:48 34.219977 -118.493121 271 799ft 0kts
18-Jun-17 14:49 34.219977 -118.493121 271 799ft 0kts
18-Jun-17 14:50 34.219977 -118.493121 271 799ft 0kts
18-Jun-17 14:51 34.219977 -118.493121 271 799ft 0kts
18-Jun-17 14:52 34.219977 -118.493121 271 799ft 0kts
18-Jun-17 14:53 34.219977 -118.493122 271 799ft 0kts
18-Jun-17 14:54 34.219977 -118.493122 271 799ft 0kts
18-Jun-17 14:55 34.219977 -118.493122 271 799ft 0kts
18-Jun-17 14:56 34.219934 -118.493242 225 799ft 4kts
18-Jun-17 14:57 34.218837 -118.492805 92 797ft 5kts
18-Jun-17 14:58 34.218745 -118.492273 90 797ft 0kts
18-Jun-17 14:59 34.217768 -118.491098 173 795ft 24kts
18-Jun-17 15:00 34.195980 -118.489557 184 1160ft 95kts
18-Jun-17 15:01 34.173580 -118.494760 185 2062ft 82kts
18-Jun-17 15:02 34.153105 -118.498910 188 2714ft 82kts
18-Jun-17 15:03 34.131116 -118.503746 188 3446ft 81kts
18-Jun-17 15:04 34.109001 -118.507005 183 4151ft 80kts
18-Jun-17 15:05 34.086203 -118.504227 157 4724ft 87kts
18-Jun-17 15:06 34.060079 -118.490891 162 4767ft 105kts
18-Jun-17 15:07 34.078022 -118.481212 342 4514ft 146kts
18-Jun-17 15:08 34.113973 -118.497049 330 4652ft 129kts
18-Jun-17 15:09 34.135144 -118.524764 283 5195ft 109kts
18-Jun-17 15:10 34.126416 -118.543852 144 5524ft 104kts
18-Jun-17 15:11 34.105245 -118.519927 135 5545ft 106kts
18-Jun-17 15:12 34.080963 -118.500705 162 5516ft 107kts
18-Jun-17 15:13 34.053345 -118.488705 157 5497ft 107kts
18-Jun-17 15:14 34.026069 -118.475113 161 5485ft 106kts
18-Jun-17 15:15 33.998936 -118.462820 163 5503ft 106kts
18-Jun-17 15:16 33.972895 -118.450351 158 5530ft 107kts
18-Jun-17 15:17 33.946094 -118.435975 159 5547ft 106kts
18-Jun-17 15:18 33.919314 -118.420367 141 5504ft 109kts
18-Jun-17 15:19 33.901660 -118.394875 143 5512ft 106kts
18-Jun-17 15:20 33.881409 -118.374695 142 5611ft 107kts
18-Jun-17 15:21 33.859887 -118.348350 149 5561ft 114kts
18-Jun-17 15:22 33.834679 -118.323193 140 5386ft 118kts
18-Jun-17 15:23 33.819073 -118.288282 114 5007ft 124kts
18-Jun-17 15:24 33.810789 -118.246395 111 4307ft 131kts
18-Jun-17 15:25 33.800349 -118.206974 115 3531ft 120kts
18-Jun-17 15:26 33.786576 -118.171222 120 2843ft 113kts
18-Jun-17 15:27 33.777884 -118.135596 106 2312ft 108kts
18-Jun-17 15:29 33.772353 -118.101674 98 2187ft 116kts
18-Jun-17 15:30 33.759405 -118.065971 120 1823ft 108kts
18-Jun-17 15:31 33.747923 -118.033350 114 1801ft 113kts
18-Jun-17 15:32 33.737697 -117.996320 115 1823ft 120kts
18-Jun-17 15:33 33.725699 -117.957386 113 1570ft 126kts
18-Jun-17 15:34 33.710821 -117.923916 128 1388ft 109kts
18-Jun-17 15:35 33.692693 -117.895548 133 1125ft 110kts
18-Jun-17 15:36 33.703275 -117.870811 75 1105ft 92kts
18-Jun-17 15:37 33.691408 -117.858861 211 461ft 61kts
18-Jun-17 15:38 33.678590 -117.867065 209 60ft 27kts
18-Jun-17 15:39 33.678103 -117.868507 278 60ft 0kts
18-Jun-17 15:40 33.676051 -117.870094 209 60ft 12kts
18-Jun-17 15:41 33.674446 -117.871995 112 60ft 0kts

Navigation Log

Ident Type
1. KVNY Airport
2. KSNA Airport